Time;durP1;ratioP1;P1;durP2;ratioP2;P2;SDS_P1;SDS_P2;PMS_P1;PMS_P2;Temp;Humidity;BMP_temperature;BMP_pressure;BME280_temperature;BME280_humidity;BME280_pressure;Samples;Min_cycle;Max_cycle;Signal;HPM_P1;HPM_P2
2021/09/20 00:01:36;;;;;;;;;;;;;;;14.47;71.88;100541.00;4975527;28;19921;-82
2021/09/20 00:04:01;;;;;;;;;;;;;;;14.52;71.75;100545.81;4976924;28;19929;-82
2021/09/20 00:06:27;;;;;;;;;;;;;;;14.59;71.61;100544.13;4974899;28;19933;-81
2021/09/20 00:08:52;;;;;;;;;;;;;;;14.59;71.42;100544.94;4977501;28;20006;-82
2021/09/20 00:11:17;;;;;;;;;;;;;;;14.53;72.37;100555.44;4977051;28;19949;-82
2021/09/20 00:13:43;;;;;;;;;;;;;;;14.55;72.79;100548.13;4976268;28;20384;-82
2021/09/20 00:16:08;;;;;;;;;;;;;;;14.56;73.46;100553.28;4977229;28;19922;-81
2021/09/20 00:18:33;;;;;;;;;;;;;;;14.57;73.86;100546.94;4971591;28;19922;-84
2021/09/20 00:20:58;;;;;;;;;;;;;;;14.63;72.92;100554.22;4977723;28;19925;-84
2021/09/20 00:23:23;;;;;;;;;;;;;;;14.67;73.52;100556.53;4978427;28;19922;-82
2021/09/20 00:25:49;;;;;;;;;;;;;;;14.67;73.92;100549.38;4979722;28;19919;-81
2021/09/20 00:28:14;;;;;;;;;;;;;;;14.67;73.47;100553.88;4978780;28;20300;-83
2021/09/20 00:30:40;;;;;;;;;;;;;;;14.70;72.26;100551.66;4979933;28;19926;-83
2021/09/20 00:33:06;;;;;;;;;;;;;;;14.72;71.46;100557.66;4979224;28;19922;-82
2021/09/20 00:35:31;;;;;;;;;;;;;;;14.63;71.91;100551.56;4979965;28;19937;-81
2021/09/20 00:37:57;;;;;;;;;;;;;;;14.61;71.77;100550.06;4979396;28;19922;-83
2021/09/20 00:40:22;;;;;;;;;;;;;;;14.61;71.67;100563.38;4979086;28;19973;-82
2021/09/20 00:42:47;;;;;;;;;;;;;;;14.67;71.21;100556.53;4979063;28;19918;-83
2021/09/20 00:45:12;;;;;;;;;;;;;;;14.61;71.59;100561.56;4980689;28;19926;-83
2021/09/20 00:47:38;;;;;;;;;;;;;;;14.65;70.75;100554.84;4980193;28;19945;-81
2021/09/20 00:50:03;;;;;;;;;;;;;;;14.66;70.77;100563.69;4981132;28;20181;-80
2021/09/20 00:52:28;;;;;;;;;;;;;;;14.59;71.89;100560.09;4981338;28;19950;-81
2021/09/20 00:54:54;;;;;;;;;;;;;;;14.63;71.01;100562.22;4993606;28;19929;-82
2021/09/20 00:57:19;;;;;;;;;;;;;;;14.67;70.60;100564.50;4991599;28;19957;-79
2021/09/20 00:59:44;;;;;;;;;;;;;;;14.56;71.23;100565.75;4991446;28;19986;-80
2021/09/20 01:02:10;;;;;;;;;;;;;;;14.54;71.66;100571.25;4991244;28;20281;-82
2021/09/20 01:04:35;;;;;;;;;;;;;;;14.55;71.11;100561.44;4989981;28;20438;-80
2021/09/20 01:07:01;;;;;;;;;;;;;;;14.49;72.05;100556.78;4986149;28;19936;-81
2021/09/20 01:09:26;;;;;;;;;;;;;;;14.51;72.08;100565.41;4982611;28;19930;-82
2021/09/20 01:11:52;;;;;;;;;;;;;;;14.51;71.96;100562.75;4983054;28;19965;-83
2021/09/20 01:14:17;;;;;;;;;;;;;;;14.59;71.08;100560.91;4963480;28;19922;-83
2021/09/20 01:16:42;;;;;;;;;;;;;;;14.65;71.15;100564.69;4979953;28;19964;-84
2021/09/20 01:19:08;;;;;;;;;;;;;;;14.63;71.26;100566.69;4977573;28;19922;-82
2021/09/20 01:21:33;;;;;;;;;;;;;;;14.63;70.91;100569.34;4980419;28;19933;-81
2021/09/20 01:23:58;;;;;;;;;;;;;;;14.47;73.97;100561.44;4981978;28;19957;-83
2021/09/20 01:26:23;;;;;;;;;;;;;;;14.52;72.79;100575.06;4980310;28;19949;-83
2021/09/20 01:28:48;;;;;;;;;;;;;;;14.47;72.99;100575.59;4980809;28;19922;-82
2021/09/20 01:31:14;;;;;;;;;;;;;;;14.48;72.29;100566.59;4981503;28;20016;-79
2021/09/20 01:33:39;;;;;;;;;;;;;;;14.46;72.45;100571.25;4980669;28;20009;-83
2021/09/20 01:36:04;;;;;;;;;;;;;;;14.57;71.89;100570.06;4981305;28;20323;-82
2021/09/20 01:38:29;;;;;;;;;;;;;;;14.62;71.48;100565.88;4983268;28;19922;-81
2021/09/20 01:40:55;;;;;;;;;;;;;;;14.57;71.53;100570.06;4978659;28;19957;-82
2021/09/20 01:43:20;;;;;;;;;;;;;;;14.50;72.11;100564.59;4978662;28;20340;-81
2021/09/20 01:45:46;;;;;;;;;;;;;;;14.44;75.68;100573.25;4979576;28;19926;-82
2021/09/20 01:48:12;;;;;;;;;;;;;;;14.49;73.12;100578.06;4977556;28;20008;-82
2021/09/20 01:50:37;;;;;;;;;;;;;;;14.42;73.44;100569.97;4980218;28;19929;-81
2021/09/20 01:53:02;;;;;;;;;;;;;;;14.39;73.46;100584.44;4962793;28;19981;-79
2021/09/20 01:55:28;;;;;;;;;;;;;;;14.38;73.55;100579.31;4979203;28;19918;-80
2021/09/20 01:57:53;;;;;;;;;;;;;;;14.41;73.02;100573.63;4979427;28;19922;-80
2021/09/20 02:00:18;;;;;;;;;;;;;;;14.40;73.43;100578.13;4978945;28;19926;-78
2021/09/20 02:02:44;;;;;;;;;;;;;;;14.49;72.05;100576.25;4963101;28;19941;-82
2021/09/20 02:05:09;;;;;;;;;;;;;;;14.47;72.22;100582.72;4980413;28;19989;-82
2021/09/20 02:07:35;;;;;;;;;;;;;;;14.47;72.24;100580.06;4979448;28;20020;-78
2021/09/20 02:10:01;;;;;;;;;;;;;;;14.42;72.95;100577.97;4981285;28;20059;-79
2021/09/20 02:12:26;;;;;;;;;;;;;;;14.49;72.08;100578.91;4973795;28;19922;-79
2021/09/20 02:14:52;;;;;;;;;;;;;;;14.37;73.01;100573.16;4976303;28;19922;-79
2021/09/20 02:17:17;;;;;;;;;;;;;;;14.34;73.46;100567.34;4980314;28;19929;-81
2021/09/20 02:19:43;;;;;;;;;;;;;;;14.40;72.75;100574.66;4980689;28;19926;-79
2021/09/20 02:22:08;;;;;;;;;;;;;;;14.36;72.89;100571.50;4978350;28;19922;-79
2021/09/20 02:24:34;;;;;;;;;;;;;;;14.31;73.15;100579.16;4979015;28;19918;-80
2021/09/20 02:26:59;;;;;;;;;;;;;;;14.36;72.96;100570.66;4977862;28;20421;-79
2021/09/20 02:29:24;;;;;;;;;;;;;;;14.40;72.41;100572.81;4979746;28;19926;-79
2021/09/20 02:31:50;;;;;;;;;;;;;;;14.34;72.70;100568.16;4978635;28;19922;-84
2021/09/20 02:34:15;;;;;;;;;;;;;;;14.33;72.33;100571.03;4961659;28;20296;-80
2021/09/20 02:36:40;;;;;;;;;;;;;;;14.30;72.67;100582.00;4979179;28;19926;-81
2021/09/20 02:39:05;;;;;;;;;;;;;;;14.24;73.11;100581.69;4979788;28;19934;-79
2021/09/20 02:41:31;;;;;;;;;;;;;;;14.31;72.63;100579.16;4980167;28;19970;-80
2021/09/20 02:43:56;;;;;;;;;;;;;;;14.31;73.44;100571.19;4976834;28;19994;-80
2021/09/20 02:46:21;;;;;;;;;;;;;;;14.29;72.88;100567.88;4976156;28;20204;-78
2021/09/20 02:48:46;;;;;;;;;;;;;;;14.31;73.30;100576.50;4978841;28;19953;-81
2021/09/20 02:51:12;;;;;;;;;;;;;;;14.31;73.02;100576.50;4978440;28;19934;-79
2021/09/20 02:53:37;;;;;;;;;;;;;;;14.35;74.88;100576.97;4979556;28;19923;-79
2021/09/20 02:56:04;;;;;;;;;;;;;;;14.37;75.02;100573.16;4978301;28;19944;-79
2021/09/20 02:58:29;;;;;;;;;;;;;;;14.42;73.30;100565.47;4978289;28;19922;-79
2021/09/20 03:00:54;;;;;;;;;;;;;;;14.42;73.15;100572.63;4978520;28;20018;-80
2021/09/20 03:03:20;;;;;;;;;;;;;;;14.40;73.78;100575.47;4977337;28;19928;-80
2021/09/20 03:05:45;;;;;;;;;;;;;;;14.39;74.42;100573.78;4978323;28;19942;-83
2021/09/20 03:08:10;;;;;;;;;;;;;;;14.45;72.87;100578.41;4971610;28;19937;-78
2021/09/20 03:10:36;;;;;;;;;;;;;;;14.37;75.21;100570.50;4976937;28;19968;-83
2021/09/20 03:13:01;;;;;;;;;;;;;;;14.34;76.13;100578.81;4978758;28;19922;-80
2021/09/20 03:15:26;;;;;;;;;;;;;;;14.36;74.91;100578.66;4968717;28;19949;-80
2021/09/20 03:17:52;;;;;;;;;;;;;;;14.32;74.11;100583.47;4978241;28;19973;-82
2021/09/20 03:20:18;;;;;;;;;;;;;;;14.33;73.82;100576.34;4979551;28;19918;-80
2021/09/20 03:22:43;;;;;;;;;;;;;;;14.38;73.28;100582.78;4980049;28;19922;-78
2021/09/20 03:25:09;;;;;;;;;;;;;;;14.39;73.04;100584.44;4982921;28;19947;-79
2021/09/20 03:27:35;;;;;;;;;;;;;;;14.36;72.99;100586.63;4983459;28;19922;-80
2021/09/20 03:30:00;;;;;;;;;;;;;;;14.32;72.97;100580.00;4982065;28;20471;-80
2021/09/20 03:32:26;;;;;;;;;;;;;;;14.29;72.90;100585.66;4959373;28;19922;-79
2021/09/20 03:34:51;;;;;;;;;;;;;;;14.26;73.21;100586.03;4974363;28;19972;-80
2021/09/20 03:37:16;;;;;;;;;;;;;;;14.26;74.76;100586.84;4975373;28;19926;-80
2021/09/20 03:39:41;;;;;;;;;;;;;;;14.28;74.14;100589.31;4976567;28;19922;-80
2021/09/20 03:42:07;;;;;;;;;;;;;;;14.30;74.25;100592.63;4976523;28;19926;-79
2021/09/20 03:44:32;;;;;;;;;;;;;;;14.33;73.81;100587.00;4974720;28;19930;-80
2021/09/20 03:46:57;;;;;;;;;;;;;;;14.30;74.04;100593.50;4964443;28;19929;-79
2021/09/20 03:49:22;;;;;;;;;;;;;;;14.33;73.37;100590.47;4975193;28;20037;-79
2021/09/20 03:51:47;;;;;;;;;;;;;;;14.30;73.60;100595.28;4973859;28;20284;-79
2021/09/20 03:54:13;;;;;;;;;;;;;;;14.31;74.59;100596.97;4976185;28;20456;-81
2021/09/20 03:56:38;;;;;;;;;;;;;;;14.33;76.39;100594.97;4976616;28;19976;-80
2021/09/20 03:59:03;;;;;;;;;;;;;;;14.33;75.90;100597.63;4978629;28;19922;-80
2021/09/20 04:01:28;;;;;;;;;;;;;;;14.33;74.39;100598.44;4978569;28;20081;-79
2021/09/20 04:03:54;;;;;;;;;;;;;;;14.31;75.79;100599.63;4978521;28;19929;-80
2021/09/20 04:06:19;;;;;;;;;;;;;;;14.24;75.25;100599.50;4980119;28;19918;-79
2021/09/20 04:08:44;;;;;;;;;;;;;;;14.17;75.73;100606.50;4979892;28;19930;-82
2021/09/20 04:11:09;;;;;;;;;;;;;;;14.14;77.82;100605.03;4981479;28;19926;-82
2021/09/20 04:13:34;;;;;;;;;;;;;;;14.17;76.41;100602.00;4981004;28;20128;-83
2021/09/20 04:15:59;;;;;;;;;;;;;;;14.19;77.23;100613.31;4981634;28;19926;-80
2021/09/20 04:18:26;;;;;;;;;;;;;;;14.22;76.87;100612.94;4980247;28;19930;-83
2021/09/20 04:20:52;;;;;;;;;;;;;;;14.23;74.38;100601.31;4981211;28;20439;-83
2021/09/20 04:23:22;;;;;;;;;;;;;;;14.27;73.73;100603.63;4982203;28;20185;-83
2021/09/20 04:25:48;;;;;;;;;;;;;;;14.23;73.90;100601.31;4974005;28;19922;-83
2021/09/20 04:28:13;;;;;;;;;;;;;;;14.25;74.42;100611.78;4980814;28;20296;-82
2021/09/20 04:30:43;;;;;;;;;;;;;;;14.27;76.16;100608.94;4982931;28;19926;-81
2021/09/20 04:33:08;;;;;;;;;;;;;;;14.31;76.09;100610.28;4985077;28;19922;-82
2021/09/20 04:35:33;;;;;;;;;;;;;;;14.36;75.06;100611.38;4983835;28;19942;-84
2021/09/20 04:37:58;;;;;;;;;;;;;;;14.34;74.43;100608.06;4980644;28;19989;-81
2021/09/20 04:40:23;;;;;;;;;;;;;;;14.31;74.45;100623.56;4972347;28;19922;-81
2021/09/20 04:42:49;;;;;;;;;;;;;;;14.28;74.10;100618.56;4981407;28;19928;-83
2021/09/20 04:45:14;;;;;;;;;;;;;;;14.31;73.69;100626.22;4980802;28;19929;-83
2021/09/20 04:47:39;;;;;;;;;;;;;;;14.22;74.22;100615.63;4979767;28;20285;-81
2021/09/20 04:50:05;;;;;;;;;;;;;;;14.21;74.00;100627.25;4978725;28;19933;-82
2021/09/20 04:52:30;;;;;;;;;;;;;;;14.24;74.08;100624.25;4981036;28;19929;-81
2021/09/20 04:54:55;;;;;;;;;;;;;;;14.24;74.37;100631.41;4981599;28;19930;-80
2021/09/20 04:57:20;;;;;;;;;;;;;;;14.26;74.13;100636.56;4982070;28;19930;-82
2021/09/20 04:59:46;;;;;;;;;;;;;;;14.21;74.32;100623.78;4975873;28;19982;-82
2021/09/20 05:02:11;;;;;;;;;;;;;;;14.05;75.85;100629.16;4980834;28;20302;-82
2021/09/20 05:04:36;;;;;;;;;;;;;;;14.18;74.56;100627.63;4982364;28;19918;-80
2021/09/20 05:07:01;;;;;;;;;;;;;;;14.06;75.31;100628.97;4980953;28;19929;-84
2021/09/20 05:09:26;;;;;;;;;;;;;;;14.05;75.35;100632.66;4981174;28;19965;-82
2021/09/20 05:11:52;;;;;;;;;;;;;;;14.10;75.53;100634.78;4981441;28;20350;-81
2021/09/20 05:14:17;;;;;;;;;;;;;;;14.13;74.91;100640.56;4978957;28;19936;-83
2021/09/20 05:16:42;;;;;;;;;;;;;;;14.00;76.13;100635.81;4981694;28;19926;-82
2021/09/20 05:19:07;;;;;;;;;;;;;;;14.00;76.45;100645.63;4980592;28;19957;-82
2021/09/20 05:21:33;;;;;;;;;;;;;;;14.02;75.67;100641.78;4978143;28;19972;-83
2021/09/20 05:23:58;;;;;;;;;;;;;;;14.10;75.16;100646.25;4978031;28;19918;-81
2021/09/20 05:26:23;;;;;;;;;;;;;;;14.06;75.26;100644.94;4977430;28;19929;-84
2021/09/20 05:28:48;;;;;;;;;;;;;;;14.06;75.34;100639.59;4977675;28;19949;-81
2021/09/20 05:31:14;;;;;;;;;;;;;;;14.02;76.66;100643.63;4979141;28;19973;-82
2021/09/20 05:33:39;;;;;;;;;;;;;;;14.03;76.25;100647.94;4978375;28;19930;-82
2021/09/20 05:36:05;;;;;;;;;;;;;;;14.05;76.79;100645.13;4978978;28;19922;-82
2021/09/20 05:38:31;;;;;;;;;;;;;;;14.05;76.00;100650.44;4978956;28;20298;-84
2021/09/20 05:40:56;;;;;;;;;;;;;;;14.07;76.11;100645.78;4978337;28;19926;-83
2021/09/20 05:43:21;;;;;;;;;;;;;;;14.13;75.18;100655.72;4979253;28;19934;-80
2021/09/20 05:45:47;;;;;;;;;;;;;;;14.08;75.33;100656.22;4978583;28;19930;-82
2021/09/20 05:48:12;;;;;;;;;;;;;;;14.12;75.33;100660.22;4976962;28;20143;-83
2021/09/20 05:50:38;;;;;;;;;;;;;;;14.11;75.63;100652.38;4979005;28;19926;-82
2021/09/20 05:53:03;;;;;;;;;;;;;;;14.12;75.28;100656.72;4977455;28;19926;-80
2021/09/20 05:55:28;;;;;;;;;;;;;;;14.11;75.44;100655.91;4982453;28;19990;-81
2021/09/20 05:57:53;;;;;;;;;;;;;;;14.08;76.35;100650.91;4978423;28;19922;-81
2021/09/20 06:00:18;;;;;;;;;;;;;;;14.15;75.44;100654.53;4978788;28;19928;-81
2021/09/20 06:02:44;;;;;;;;;;;;;;;14.16;75.19;100658.88;4977624;28;20281;-82
2021/09/20 06:05:11;;;;;;;;;;;;;;;14.09;76.76;100660.56;4979606;28;19922;-83
2021/09/20 06:07:37;;;;;;;;;;;;;;;14.18;75.04;100667.50;4984589;28;19928;-82
2021/09/20 06:10:02;;;;;;;;;;;;;;;14.11;77.12;100668.34;4982057;28;19961;-80
2021/09/20 06:12:27;;;;;;;;;;;;;;;14.16;76.31;100669.50;4977658;28;19925;-83
2021/09/20 06:14:53;;;;;;;;;;;;;;;14.17;77.02;100671.16;4959747;28;19922;-82
2021/09/20 06:17:18;;;;;;;;;;;;;;;14.22;76.00;100676.78;4977158;28;20296;-81
2021/09/20 06:19:43;;;;;;;;;;;;;;;14.23;75.24;100672.31;4977559;28;19922;-82
2021/09/20 06:22:08;;;;;;;;;;;;;;;14.21;78.92;100674.31;4977312;28;19922;-83
2021/09/20 06:24:33;;;;;;;;;;;;;;;14.23;77.73;100672.31;4976663;28;19957;-79
2021/09/20 06:26:59;;;;;;;;;;;;;;;14.27;76.30;100672.78;4978176;28;19922;-84
2021/09/20 06:29:24;;;;;;;;;;;;;;;14.28;75.82;100666.44;4961289;28;19989;-82
2021/09/20 06:31:49;;;;;;;;;;;;;;;14.29;75.90;100673.44;4978805;28;20372;-81
2021/09/20 06:34:14;;;;;;;;;;;;;;;14.34;75.14;100668.44;4976080;28;20347;-82
2021/09/20 06:36:40;;;;;;;;;;;;;;;14.39;74.75;100666.06;4977727;28;19952;-82
2021/09/20 06:39:07;;;;;;;;;;;;;;;14.27;75.41;100670.94;4977707;28;19922;-81
2021/09/20 06:41:32;;;;;;;;;;;;;;;14.33;75.06;100672.94;4977925;28;20136;-83
2021/09/20 06:43:57;;;;;;;;;;;;;;;14.35;74.81;100675.41;4975789;28;19934;-82
2021/09/20 06:46:23;;;;;;;;;;;;;;;14.37;74.73;100678.72;4969754;28;19925;-81
2021/09/20 06:48:49;;;;;;;;;;;;;;;14.34;75.99;100677.25;4977332;28;19935;-80
2021/09/20 06:51:14;;;;;;;;;;;;;;;14.32;75.46;100681.91;4978588;28;19930;-80
2021/09/20 06:53:39;;;;;;;;;;;;;;;14.36;75.42;100677.06;4978028;28;19930;-82
2021/09/20 06:56:04;;;;;;;;;;;;;;;14.47;73.81;100678.50;4975670;28;19941;-81
2021/09/20 06:58:29;;;;;;;;;;;;;;;14.36;75.05;100679.75;4976734;28;19949;-80
2021/09/20 07:00:55;;;;;;;;;;;;;;;14.39;74.30;100685.53;4977634;28;19961;-81
2021/09/20 07:03:20;;;;;;;;;;;;;;;14.36;75.07;100693.03;4977391;28;19923;-80
2021/09/20 07:05:45;;;;;;;;;;;;;;;14.42;74.82;100687.84;4977107;28;19922;-82
2021/09/20 07:08:10;;;;;;;;;;;;;;;14.46;74.30;100698.97;4977207;28;20421;-81
2021/09/20 07:10:36;;;;;;;;;;;;;;;14.44;74.70;100693.00;4977302;28;19964;-82
2021/09/20 07:13:02;;;;;;;;;;;;;;;14.49;73.90;100693.31;4978524;28;20296;-82
2021/09/20 07:15:27;;;;;;;;;;;;;;;14.53;74.33;100699.94;4979032;28;19925;-81
2021/09/20 07:17:53;;;;;;;;;;;;;;;14.61;74.15;100701.75;4978029;28;19926;-82
2021/09/20 07:20:18;;;;;;;;;;;;;;;14.67;73.27;100703.75;4977026;28;19922;-81
2021/09/20 07:22:44;;;;;;;;;;;;;;;14.59;73.68;100699.28;4978218;28;19922;-82
2021/09/20 07:25:09;;;;;;;;;;;;;;;14.67;73.47;100713.56;4979302;28;19922;-82
2021/09/20 07:27:35;;;;;;;;;;;;;;;14.60;73.86;100711.56;4981194;28;20009;-81
2021/09/20 07:30:00;;;;;;;;;;;;;;;14.62;74.07;100712.25;4980187;28;19938;-81
2021/09/20 07:32:25;;;;;;;;;;;;;;;14.66;73.58;100723.38;4975371;28;20017;-81
2021/09/20 07:34:50;;;;;;;;;;;;;;;14.61;74.26;100717.72;4976219;28;19933;-81
2021/09/20 07:37:16;;;;;;;;;;;;;;;14.70;73.90;100716.69;4976474;28;19929;-80
2021/09/20 07:39:41;;;;;;;;;;;;;;;14.77;73.64;100722.97;4976500;28;20172;-82
2021/09/20 07:42:09;;;;;;;;;;;;;;;14.73;74.08;100720.84;4975501;28;20009;-82
2021/09/20 07:44:34;;;;;;;;;;;;;;;14.89;73.43;100723.41;4975856;28;19922;-81
2021/09/20 07:46:59;;;;;;;;;;;;;;;14.99;73.00;100734.69;4978311;28;20430;-83
2021/09/20 07:49:25;;;;;;;;;;;;;;;14.97;72.72;100722.53;4966546;28;19961;-82
2021/09/20 07:51:50;;;;;;;;;;;;;;;15.00;73.19;100728.34;4976396;28;19925;-82
2021/09/20 07:54:15;;;;;;;;;;;;;;;15.11;72.27;100728.94;4974457;28;19922;-81
2021/09/20 07:56:40;;;;;;;;;;;;;;;15.15;72.15;100725.75;4959986;28;19957;-82
2021/09/20 07:59:06;;;;;;;;;;;;;;;15.21;72.51;100726.91;4977461;28;19926;-81
2021/09/20 08:01:31;;;;;;;;;;;;;;;15.29;72.02;100730.31;4975985;28;20410;-81
2021/09/20 08:03:56;;;;;;;;;;;;;;;15.30;71.47;100733.78;4972369;28;19941;-81
2021/09/20 08:06:22;;;;;;;;;;;;;;;15.22;72.31;100723.22;4976701;28;19922;-82
2021/09/20 08:08:48;;;;;;;;;;;;;;;15.36;71.90;100726.94;4970257;28;20160;-79
2021/09/20 08:11:13;;;;;;;;;;;;;;;15.43;71.71;100722.56;4979080;28;19933;-81
2021/09/20 08:13:38;;;;;;;;;;;;;;;15.52;70.48;100729.50;4979576;28;19950;-80
2021/09/20 08:16:04;;;;;;;;;;;;;;;15.58;70.44;100725.25;4978593;28;20447;-81
2021/09/20 08:18:29;;;;;;;;;;;;;;;15.57;71.09;100732.44;4979373;28;19922;-82
2021/09/20 08:20:54;;;;;;;;;;;;;;;15.68;71.35;100724.03;4963588;28;20359;-81
2021/09/20 08:23:19;;;;;;;;;;;;;;;15.76;70.65;100728.47;4982181;28;19926;-80
2021/09/20 08:25:45;;;;;;;;;;;;;;;15.67;69.58;100729.53;4979773;28;19932;-79
2021/09/20 08:28:10;;;;;;;;;;;;;;;15.63;70.51;100736.22;4980790;28;19925;-80
2021/09/20 08:30:35;;;;;;;;;;;;;;;15.84;69.10;100738.22;4978771;28;19922;-79
2021/09/20 08:33:01;;;;;;;;;;;;;;;15.70;70.11;100738.00;4978252;28;20284;-81
2021/09/20 08:35:26;;;;;;;;;;;;;;;15.81;69.08;100739.44;4964204;28;19924;-79
2021/09/20 08:37:52;;;;;;;;;;;;;;;15.82;69.12;100737.56;4981110;28;19926;-79
2021/09/20 08:40:18;;;;;;;;;;;;;;;15.80;68.71;100743.13;4978626;28;19922;-79
2021/09/20 08:42:43;;;;;;;;;;;;;;;15.82;69.22;100750.91;4971076;28;19942;-80
2021/09/20 08:45:10;;;;;;;;;;;;;;;15.77;69.31;100751.44;4964239;28;19918;-82
2021/09/20 08:47:39;;;;;;;;;;;;;;;15.82;69.84;100758.91;4983419;28;19973;-80
2021/09/20 08:50:04;;;;;;;;;;;;;;;15.95;68.19;100760.97;4975307;28;19949;-79
2021/09/20 08:52:29;;;;;;;;;;;;;;;16.17;68.27;100765.41;4977817;28;19925;-80
2021/09/20 08:54:55;;;;;;;;;;;;;;;16.27;67.97;100763.28;4978517;28;19922;-80
2021/09/20 08:57:20;;;;;;;;;;;;;;;16.24;68.03;100762.84;4971103;28;19950;-80
2021/09/20 08:59:46;;;;;;;;;;;;;;;16.22;68.42;100772.88;4977271;28;19922;-80
2021/09/20 09:02:15;;;;;;;;;;;;;;;16.37;68.84;100775.53;4969883;28;19922;-79
2021/09/20 09:04:41;;;;;;;;;;;;;;;16.65;67.62;100771.22;4978392;28;19925;-80
2021/09/20 09:07:07;;;;;;;;;;;;;;;16.74;65.74;100767.44;4977206;28;19922;-80
2021/09/20 09:09:35;;;;;;;;;;;;;;;16.65;65.36;100765.88;4978214;28;19993;-81
2021/09/20 09:12:07;;;;;;;;;;;;;;;16.60;66.97;100768.28;4981214;28;19926;-80
2021/09/20 09:14:37;;;;;;;;;;;;;;;16.74;66.08;100772.78;4972673;28;19922;-80
2021/09/20 09:17:02;;;;;;;;;;;;;;;16.79;65.60;100771.41;4976826;28;19930;-79
2021/09/20 09:19:28;;;;;;;;;;;;;;;16.87;65.03;100769.44;4978180;28;19922;-81
2021/09/20 09:21:53;;;;;;;;;;;;;;;17.04;63.85;100777.25;4966144;28;19969;-81
2021/09/20 09:24:20;;;;;;;;;;;;;;;16.92;64.41;100774.25;4977853;28;19922;-79
2021/09/20 09:26:56;;;;;;;;;;;;;;;16.99;63.41;100775.13;4978440;28;19946;-81
2021/09/20 09:29:21;;;;;;;;;;;;;;;16.95;63.51;100777.38;4977806;28;20021;-82
2021/09/20 09:31:51;;;;;;;;;;;;;;;16.96;62.41;100775.53;4978072;28;20392;-81
2021/09/20 09:34:18;;;;;;;;;;;;;;;17.19;62.78;100780.72;4958330;28;19918;-79
2021/09/20 09:36:43;;;;;;;;;;;;;;;17.22;62.00;100776.84;4976754;28;20308;-80
2021/09/20 09:39:08;;;;;;;;;;;;;;;17.26;63.10;100772.78;4978528;28;19922;-79
2021/09/20 09:41:35;;;;;;;;;;;;;;;17.36;61.75;100784.00;4968315;28;19922;-81
2021/09/20 09:44:04;;;;;;;;;;;;;;;17.26;62.16;100789.66;4978055;28;19926;-80
2021/09/20 09:46:29;;;;;;;;;;;;;;;17.33;61.46;100787.06;4976945;28;19929;-80
2021/09/20 09:48:54;;;;;;;;;;;;;;;17.45;61.23;100782.00;4978060;28;19918;-80
2021/09/20 09:51:20;;;;;;;;;;;;;;;17.19;62.46;100776.19;4977876;28;19926;-81
2021/09/20 09:53:46;;;;;;;;;;;;;;;17.26;62.77;100783.47;4978524;28;19925;-81
2021/09/20 09:56:15;;;;;;;;;;;;;;;17.43;62.86;100784.06;4975446;28;20011;-81
2021/09/20 09:58:59;;;;;;;;;;;;;;;17.53;62.92;100782.72;4978265;28;19922;-81
2021/09/20 10:01:32;;;;;;;;;;;;;;;17.64;63.49;100770.69;4977632;28;19922;-81
2021/09/20 10:04:05;;;;;;;;;;;;;;;17.69;62.50;100781.63;4976365;28;20385;-80
2021/09/20 10:06:44;;;;;;;;;;;;;;;17.74;61.32;100775.72;4975819;28;19929;-80
2021/09/20 10:09:17;;;;;;;;;;;;;;;17.52;63.78;100780.22;4971423;28;20273;-81
2021/09/20 10:11:45;;;;;;;;;;;;;;;17.65;62.52;100776.84;4976842;28;20419;-80
2021/09/20 10:14:17;;;;;;;;;;;;;;;17.52;62.71;100781.06;4976396;28;19926;-81
2021/09/20 10:16:43;;;;;;;;;;;;;;;17.52;62.43;100775.72;4974472;28;19926;-80
2021/09/20 10:19:08;;;;;;;;;;;;;;;17.58;61.58;100772.25;4978634;28;19922;-82
2021/09/20 10:21:34;;;;;;;;;;;;;;;17.53;62.97;100765.84;4977652;28;19928;-83
2021/09/20 10:23:59;;;;;;;;;;;;;;;17.47;63.50;100778.16;4978333;28;19922;-81
2021/09/20 10:26:26;;;;;;;;;;;;;;;17.58;61.44;100777.63;4981434;28;19930;-82
2021/09/20 10:28:52;;;;;;;;;;;;;;;17.46;62.12;100776.47;4963267;28;19922;-79
2021/09/20 10:31:18;;;;;;;;;;;;;;;17.59;62.56;100768.59;4963275;28;19926;-81
2021/09/20 10:33:44;;;;;;;;;;;;;;;17.63;62.47;100777.03;4979739;28;19972;-83
2021/09/20 10:36:09;;;;;;;;;;;;;;;17.73;61.57;100774.03;4980814;28;19942;-83
2021/09/20 10:38:35;;;;;;;;;;;;;;;17.83;61.60;100770.06;4972136;28;19918;-79
2021/09/20 10:41:03;;;;;;;;;;;;;;;17.89;60.60;100771.13;4980738;28;19922;-83
2021/09/20 10:43:28;;;;;;;;;;;;;;;17.76;61.43;100774.50;4973019;28;19922;-79
2021/09/20 10:45:54;;;;;;;;;;;;;;;18.02;61.37;100771.22;4983472;28;19928;-79
2021/09/20 10:48:19;;;;;;;;;;;;;;;18.19;58.70;100773.63;4979729;28;19922;-79
2021/09/20 10:50:45;;;;;;;;;;;;;;;18.29;59.52;100787.47;4979152;28;19926;-81
2021/09/20 10:53:31;;;;;;;;;;;;;;;18.28;59.69;100780.44;4982618;28;19933;-81
2021/09/20 10:56:00;;;;;;;;;;;;;;;18.44;59.68;100777.47;4977064;28;19929;-80
2021/09/20 10:58:25;;;;;;;;;;;;;;;18.51;57.75;100782.84;4976874;28;19930;-81
2021/09/20 11:01:11;;;;;;;;;;;;;;;18.62;56.78;100789.53;4977570;28;20056;-83
2021/09/20 11:03:43;;;;;;;;;;;;;;;18.26;58.09;100785.19;4977465;28;19954;-80
2021/09/20 11:06:21;;;;;;;;;;;;;;;18.37;57.63;100797.19;4972638;28;19926;-79
2021/09/20 11:08:47;;;;;;;;;;;;;;;18.36;58.56;100782.16;4976608;28;19930;-79
2021/09/20 11:11:31;;;;;;;;;;;;;;;18.45;57.97;100789.03;4961879;28;20370;-81
2021/09/20 11:14:00;;;;;;;;;;;;;;;18.50;60.38;100793.78;4976347;28;19942;-80
2021/09/20 11:16:44;;;;;;;;;;;;;;;18.65;59.38;100797.16;4979846;28;19953;-81
2021/09/20 11:19:27;;;;;;;;;;;;;;;18.84;58.05;100791.09;4978027;28;19929;-81
2021/09/20 11:22:14;;;;;;;;;;;;;;;18.82;58.91;100790.47;4977659;28;19922;-81
2021/09/20 11:24:44;;;;;;;;;;;;;;;18.94;57.60;100793.38;4964830;28;19925;-79
2021/09/20 11:27:22;;;;;;;;;;;;;;;18.84;56.60;100793.75;4970780;28;20166;-81
2021/09/20 11:30:08;;;;;;;;;;;;;;;18.59;58.68;100803.28;4980870;28;19945;-80
2021/09/20 11:32:41;;;;;;;;;;;;;;;18.46;59.45;100799.50;4972555;28;20344;-80
2021/09/20 11:35:06;;;;;;;;;;;;;;;18.56;58.85;100801.00;4975849;28;19929;-81
2021/09/20 11:37:32;;;;;;;;;;;;;;;18.67;58.61;100803.97;4978747;28;19922;-81
2021/09/20 11:40:01;;;;;;;;;;;;;;;18.72;58.38;100806.06;4978648;28;19999;-79
2021/09/20 11:42:39;;;;;;;;;;;;;;;19.10;56.96;100798.41;4978273;28;19925;-81
2021/09/20 11:45:05;;;;;;;;;;;;;;;19.14;57.62;100804.19;4979170;28;19918;-81
2021/09/20 11:47:34;;;;;;;;;;;;;;;19.44;55.52;100795.81;4978157;28;19965;-80
2021/09/20 11:50:19;;;;;;;;;;;;;;;19.44;56.39;100795.81;4980992;28;20001;-80
2021/09/20 11:52:46;;;;;;;;;;;;;;;19.59;55.18;100801.81;4969883;28;19990;-79
2021/09/20 11:55:13;;;;;;;;;;;;;;;19.56;53.85;100801.41;4957769;28;19918;-81
2021/09/20 11:57:40;;;;;;;;;;;;;;;19.71;56.23;100805.59;4982431;28;19976;-80
2021/09/20 12:00:07;;;;;;;;;;;;;;;19.72;56.11;100799.19;4979368;28;19988;-80
2021/09/20 12:02:34;;;;;;;;;;;;;;;19.83;56.21;100805.81;4980665;28;19981;-79
2021/09/20 12:05:00;;;;;;;;;;;;;;;19.97;56.64;100803.91;4954343;28;19931;-81
2021/09/20 12:07:29;;;;;;;;;;;;;;;19.82;55.38;100809.50;4977610;28;19922;-80
2021/09/20 12:09:56;;;;;;;;;;;;;;;19.91;55.02;100804.75;4976360;28;20028;-80
2021/09/20 12:12:31;;;;;;;;;;;;;;;19.83;55.06;100805.81;4954687;28;19938;-83
2021/09/20 12:15:02;;;;;;;;;;;;;;;19.87;55.00;100808.88;4978035;28;20013;-79
2021/09/20 12:17:43;;;;;;;;;;;;;;;20.03;54.30;100803.09;4976967;28;19922;-81
2021/09/20 12:20:08;;;;;;;;;;;;;;;19.73;53.58;100808.91;4962990;28;19924;-79
2021/09/20 12:22:38;;;;;;;;;;;;;;;19.34;55.14;100800.75;4973998;28;19918;-81
2021/09/20 12:25:21;;;;;;;;;;;;;;;19.27;56.02;100809.59;4983895;28;19937;-81
2021/09/20 12:27:46;;;;;;;;;;;;;;;19.20;57.25;100814.09;4985150;28;19922;-80
2021/09/20 12:30:15;;;;;;;;;;;;;;;19.20;56.28;100810.59;4984056;28;20217;-80
2021/09/20 12:32:40;;;;;;;;;;;;;;;19.00;58.43;100808.69;4980563;28;19922;-82